createdAt,value
2022-09-09T00:00:00.028Z,0.22
2022-09-09T00:01:31.541Z,0.20
2022-09-09T00:02:33.650Z,0.30
2022-09-09T00:03:46.217Z,0.45
2022-09-09T00:05:02.930Z,0.20
2022-09-09T00:06:23.108Z,0.25
2022-09-09T00:07:39.393Z,0.20
2022-09-09T00:09:24.804Z,0.20
2022-09-09T00:10:26.405Z,0.40
2022-09-09T00:11:41.589Z,0.30
2022-09-09T00:12:58.883Z,0.50
2022-09-09T00:14:09.268Z,0.33
2022-09-09T00:15:20.480Z,0.32
2022-09-09T00:16:26.486Z,0.60
2022-09-09T00:17:56.365Z,0.20
2022-09-09T00:19:09.140Z,0.32
2022-09-09T00:20:37.843Z,0.20
2022-09-09T00:21:52.137Z,0.40
2022-09-09T00:23:20.671Z,0.30
2022-09-09T00:24:27.560Z,0.30
2022-09-09T00:25:46.703Z,0.20
2022-09-09T00:26:54.306Z,0.30
2022-09-09T00:27:56.724Z,0.30
2022-09-09T00:29:13.435Z,0.20
2022-09-09T00:30:23.448Z,0.30
2022-09-09T00:31:29.352Z,0.30
2022-09-09T00:32:32.881Z,0.30
2022-09-09T00:33:35.644Z,0.38
2022-09-09T00:34:40.212Z,0.40
2022-09-09T00:36:16.705Z,0.20
2022-09-09T00:37:20.363Z,0.30
2022-09-09T00:38:33.200Z,0.30
2022-09-09T00:39:44.848Z,0.22
2022-09-09T00:41:12.592Z,0.70
2022-09-09T00:42:14.782Z,0.35
2022-09-09T00:43:26.805Z,0.20
2022-09-09T00:44:37.713Z,0.20
2022-09-09T00:46:15.465Z,0.45
2022-09-09T00:47:39.957Z,0.20
2022-09-09T00:48:53.628Z,0.40
2022-09-09T00:50:11.814Z,0.60
2022-09-09T00:51:29.623Z,0.20
2022-09-09T00:52:57.190Z,0.20
2022-09-09T00:54:16.063Z,0.30
2022-09-09T00:55:42.832Z,0.20
2022-09-09T00:56:57.274Z,0.47
2022-09-09T00:57:59.709Z,0.63
2022-09-09T00:59:28.587Z,0.25
2022-09-09T01:00:42.863Z,0.30
2022-09-09T01:01:45.460Z,0.40
2022-09-09T01:03:00.105Z,0.30
2022-09-09T01:04:04.163Z,0.20
2022-09-09T01:05:13.241Z,0.30
2022-09-09T01:06:25.834Z,0.40
2022-09-09T01:07:27.708Z,0.30
2022-09-09T01:08:55.444Z,0.40
2022-09-09T01:09:59.458Z,0.30
2022-09-09T01:11:03.220Z,0.20
2022-09-09T01:12:11.334Z,0.30
2022-09-09T01:13:23.216Z,0.40
2022-09-09T01:14:40.071Z,0.30
2022-09-09T01:15:43.652Z,0.27
2022-09-09T01:16:46.568Z,0.40
2022-09-09T01:18:11.524Z,0.30
2022-09-09T01:19:23.047Z,0.30
2022-09-09T01:20:37.765Z,0.40
2022-09-09T01:22:02.352Z,0.50
2022-09-09T01:23:35.324Z,1.13
2022-09-09T01:24:48.714Z,0.28
2022-09-09T01:26:12.275Z,0.38
2022-09-09T01:27:14.899Z,0.30
2022-09-09T01:28:26.317Z,0.30
2022-09-09T01:29:28.008Z,0.40
2022-09-09T01:30:30.106Z,0.47
2022-09-09T01:31:37.308Z,0.43
2022-09-09T01:32:45.174Z,0.45
2022-09-09T01:33:47.701Z,0.30
2022-09-09T01:34:49.501Z,0.30
2022-09-09T01:36:08.602Z,0.20
2022-09-09T01:37:13.027Z,0.30
2022-09-09T01:38:15.829Z,0.40
2022-09-09T01:39:17.954Z,0.20
2022-09-09T01:40:20.524Z,0.28
2022-09-09T01:41:22.388Z,0.30
2022-09-09T01:42:24.070Z,0.40
2022-09-09T01:43:26.895Z,0.20
2022-09-09T01:44:30.596Z,0.32
2022-09-09T01:45:32.499Z,0.40
2022-09-09T01:46:34.536Z,0.28
2022-09-09T01:47:37.093Z,0.28
2022-09-09T01:48:38.989Z,0.40
2022-09-09T01:49:40.717Z,0.40
2022-09-09T01:50:42.451Z,0.40
2022-09-09T01:51:46.976Z,0.30
2022-09-09T01:52:53.887Z,0.43
2022-09-09T01:53:55.654Z,0.38
2022-09-09T01:54:57.514Z,0.47
2022-09-09T01:56:02.244Z,0.47
2022-09-09T01:57:16.979Z,0.20
2022-09-09T01:58:44.318Z,0.40
2022-09-09T01:59:55.820Z,0.50
2022-09-09T02:01:29.112Z,0.30
2022-09-09T02:02:33.127Z,0.40
2022-09-09T02:03:36.538Z,0.22
2022-09-09T02:04:41.167Z,0.20
2022-09-09T02:05:51.301Z,0.60
2022-09-09T02:06:56.723Z,0.20
2022-09-09T02:08:22.061Z,0.40
2022-09-09T02:09:27.537Z,0.40
2022-09-09T02:10:40.832Z,0.47
2022-09-09T02:11:47.777Z,0.32
2022-09-09T02:13:14.470Z,0.30
2022-09-09T02:14:24.373Z,0.40
2022-09-09T02:15:29.623Z,0.40
2022-09-09T02:16:53.158Z,0.22
2022-09-09T02:17:58.923Z,0.40
2022-09-09T02:19:07.941Z,0.40
2022-09-09T02:20:13.833Z,0.50
2022-09-09T02:21:17.164Z,0.30
2022-09-09T02:22:25.337Z,0.38
2022-09-09T02:23:29.210Z,0.30
2022-09-09T02:24:35.887Z,0.30
2022-09-09T02:25:38.406Z,0.30
2022-09-09T02:26:42.959Z,0.20
2022-09-09T02:27:48.488Z,0.30
2022-09-09T02:28:51.797Z,0.30
2022-09-09T02:29:56.679Z,0.43
2022-09-09T02:30:59.413Z,0.30
2022-09-09T02:32:06.694Z,0.30
2022-09-09T02:33:11.646Z,0.47
2022-09-09T02:34:15.223Z,0.30
2022-09-09T02:35:22.065Z,0.30
2022-09-09T02:36:27.097Z,0.17
2022-09-09T02:37:36.188Z,0.60
2022-09-09T02:38:43.774Z,0.40
2022-09-09T02:39:45.532Z,0.20
2022-09-09T02:40:47.244Z,0.30
2022-09-09T02:41:48.913Z,0.30
2022-09-09T02:42:50.894Z,0.10
2022-09-09T02:43:52.607Z,0.30
2022-09-09T02:44:54.361Z,0.25
2022-09-09T02:46:04.866Z,0.37
2022-09-09T02:47:35.363Z,0.25
2022-09-09T02:48:51.828Z,0.40
2022-09-09T02:50:12.292Z,0.40
2022-09-09T02:51:18.720Z,0.28
2022-09-09T02:52:27.630Z,0.45
2022-09-09T02:54:01.866Z,0.30
2022-09-09T02:55:13.134Z,0.20
2022-09-09T02:56:18.295Z,0.40
2022-09-09T02:57:27.151Z,0.30
2022-09-09T02:58:29.293Z,0.30
2022-09-09T02:59:31.605Z,0.22
2022-09-09T03:00:33.651Z,0.30
2022-09-09T03:01:36.622Z,0.40
2022-09-09T03:02:39.547Z,0.30
2022-09-09T03:03:42.445Z,0.30
2022-09-09T03:04:45.534Z,0.30
2022-09-09T03:05:47.249Z,0.30
2022-09-09T03:06:49.209Z,0.30
2022-09-09T03:07:51.568Z,0.40
2022-09-09T03:08:53.656Z,0.27
2022-09-09T03:09:55.920Z,0.20
2022-09-09T03:10:59.908Z,0.30
2022-09-09T03:12:01.788Z,0.30
2022-09-09T03:13:05.287Z,0.45
2022-09-09T03:14:07.277Z,0.47
2022-09-09T03:15:09.273Z,0.28
2022-09-09T03:16:10.959Z,0.30
2022-09-09T03:17:12.895Z,0.28
2022-09-09T03:18:14.618Z,0.30
2022-09-09T03:19:16.269Z,0.30
2022-09-09T03:20:18.113Z,0.30
2022-09-09T03:21:19.765Z,0.30
2022-09-09T03:22:22.222Z,0.30
2022-09-09T03:23:24.008Z,0.30
2022-09-09T03:24:26.317Z,0.38
2022-09-09T03:25:27.982Z,0.30
2022-09-09T03:26:29.975Z,0.30
2022-09-09T03:27:31.681Z,0.30
2022-09-09T03:28:34.186Z,0.60
2022-09-09T03:29:35.919Z,0.20
2022-09-09T03:30:38.738Z,0.40
2022-09-09T03:31:40.679Z,0.75
2022-09-09T03:32:47.107Z,0.32
2022-09-09T03:33:50.496Z,0.30
2022-09-09T03:34:53.112Z,0.60
2022-09-09T03:35:57.419Z,0.50
2022-09-09T03:36:59.077Z,0.70
2022-09-09T03:38:01.734Z,0.20
2022-09-09T03:39:04.191Z,0.40
2022-09-09T03:40:07.203Z,0.40
2022-09-09T03:41:09.722Z,0.50
2022-09-09T03:42:15.122Z,0.50
2022-09-09T03:43:17.607Z,0.25
2022-09-09T03:44:19.258Z,0.45
2022-09-09T03:45:20.942Z,0.30
2022-09-09T03:46:25.150Z,0.40
2022-09-09T03:47:26.862Z,0.60
2022-09-09T03:48:29.254Z,0.57
2022-09-09T03:49:31.084Z,0.32
2022-09-09T03:50:33.182Z,0.43
2022-09-09T03:51:37.154Z,0.43
2022-09-09T03:52:40.104Z,0.43
2022-09-09T03:53:41.901Z,0.38
2022-09-09T03:54:43.682Z,0.63
2022-09-09T03:55:56.073Z,0.50
2022-09-09T03:56:58.970Z,0.43
2022-09-09T03:58:01.310Z,0.55
2022-09-09T03:59:03.458Z,0.60
2022-09-09T04:00:07.121Z,0.57
2022-09-09T04:01:14.758Z,0.70
2022-09-09T04:02:16.736Z,0.60
2022-09-09T04:03:18.637Z,0.60
2022-09-09T04:04:21.053Z,0.75
2022-09-09T04:05:22.715Z,0.57
2022-09-09T04:06:24.683Z,0.60
2022-09-09T04:07:28.208Z,0.70
2022-09-09T04:08:32.348Z,0.60
2022-09-09T04:09:35.692Z,0.55
2022-09-09T04:10:38.175Z,0.60
2022-09-09T04:11:39.848Z,0.60
2022-09-09T04:12:41.495Z,0.70
2022-09-09T04:13:43.184Z,1.20
2022-09-09T04:14:44.841Z,0.75
2022-09-09T04:15:58.422Z,0.65
2022-09-09T04:17:00.595Z,0.68
2022-09-09T04:18:02.320Z,0.50
2022-09-09T04:19:05.289Z,1.25
2022-09-09T04:20:09.273Z,0.52
2022-09-09T04:21:13.055Z,0.75
2022-09-09T04:22:14.699Z,0.50
2022-09-09T04:23:17.360Z,1.08
2022-09-09T04:24:19.878Z,0.60
2022-09-09T04:25:21.589Z,0.45
2022-09-09T04:26:23.852Z,0.70
2022-09-09T04:27:25.537Z,0.90
2022-09-09T04:28:30.130Z,0.60
2022-09-09T04:29:31.876Z,0.70
2022-09-09T04:30:33.520Z,0.68
2022-09-09T04:31:36.419Z,0.80
2022-09-09T04:32:38.099Z,0.67
2022-09-09T04:33:40.726Z,0.60
2022-09-09T04:34:42.456Z,0.57
2022-09-09T04:35:49.371Z,0.70
2022-09-09T04:36:52.843Z,0.70
2022-09-09T04:37:54.554Z,0.80
2022-09-09T04:38:56.281Z,0.80
2022-09-09T04:39:58.001Z,0.70
2022-09-09T04:40:59.747Z,0.70
2022-09-09T04:42:01.438Z,0.82
2022-09-09T04:43:08.294Z,0.90
2022-09-09T04:44:11.282Z,0.60
2022-09-09T04:45:14.408Z,0.55
2022-09-09T04:46:18.186Z,1.45
2022-09-09T04:47:19.897Z,0.60
2022-09-09T04:48:22.238Z,0.70
2022-09-09T04:49:24.211Z,0.55
2022-09-09T04:50:26.607Z,0.60
2022-09-09T04:51:29.179Z,0.70
2022-09-09T04:52:30.867Z,0.80
2022-09-09T04:53:34.994Z,0.97
2022-09-09T04:54:36.679Z,0.60
2022-09-09T04:55:38.662Z,0.70
2022-09-09T04:56:40.839Z,0.80
2022-09-09T04:57:42.545Z,1.00
2022-09-09T04:58:44.425Z,0.98
2022-09-09T04:59:47.074Z,0.70
2022-09-09T05:00:48.775Z,0.68
2022-09-09T05:01:51.317Z,0.70
2022-09-09T05:02:53.001Z,0.63
2022-09-09T05:03:54.677Z,0.73
2022-09-09T05:04:56.337Z,0.90
2022-09-09T05:06:24.446Z,0.70
2022-09-09T05:07:28.187Z,0.70
2022-09-09T05:08:30.141Z,1.00
2022-09-09T05:09:31.775Z,0.90
2022-09-09T05:10:34.559Z,0.60
2022-09-09T05:11:37.829Z,0.70
2022-09-09T05:12:39.593Z,0.70
2022-09-09T05:13:41.611Z,0.70
2022-09-09T05:14:44.616Z,0.87
2022-09-09T05:15:53.843Z,0.80
2022-09-09T05:16:56.861Z,1.10
2022-09-09T05:18:03.354Z,0.90
2022-09-09T05:19:05.244Z,1.02
2022-09-09T05:20:09.919Z,0.85
2022-09-09T05:21:14.531Z,1.00
2022-09-09T05:22:24.120Z,0.85
2022-09-09T05:23:25.841Z,0.82
2022-09-09T05:24:27.803Z,0.82
2022-09-09T05:25:29.453Z,1.10
2022-09-09T05:26:31.474Z,0.80
2022-09-09T05:27:35.333Z,0.85
2022-09-09T05:28:37.125Z,1.10
2022-09-09T05:29:39.404Z,1.00
2022-09-09T05:30:41.108Z,0.80
2022-09-09T05:31:42.792Z,1.00
2022-09-09T05:32:44.479Z,0.98
2022-09-09T05:33:47.568Z,0.80
2022-09-09T05:34:49.229Z,0.75
2022-09-09T05:36:03.740Z,0.80
2022-09-09T05:37:05.500Z,1.00
2022-09-09T05:38:07.655Z,1.10
2022-09-09T05:39:09.423Z,0.98
2022-09-09T05:40:12.046Z,0.90
2022-09-09T05:41:16.605Z,0.95
2022-09-09T05:42:18.264Z,1.00
2022-09-09T05:43:22.478Z,0.90
2022-09-09T05:44:28.642Z,1.05
2022-09-09T05:45:30.270Z,0.85
2022-09-09T05:46:32.395Z,1.10
2022-09-09T05:47:34.265Z,1.05
2022-09-09T05:48:38.358Z,1.05
2022-09-09T05:49:40.279Z,0.93
2022-09-09T05:50:43.629Z,0.90
2022-09-09T05:51:45.361Z,1.10
2022-09-09T05:52:47.030Z,1.00
2022-09-09T05:53:49.875Z,0.82
2022-09-09T05:54:51.629Z,1.00
2022-09-09T05:56:20.752Z,1.15
2022-09-09T05:57:22.454Z,1.20
2022-09-09T05:58:25.282Z,1.00
2022-09-09T05:59:27.036Z,1.70
2022-09-09T06:00:28.685Z,1.00
2022-09-09T06:01:33.111Z,0.93
2022-09-09T06:02:34.983Z,1.20
2022-09-09T06:03:38.951Z,1.02
2022-09-09T06:04:40.651Z,1.65
2022-09-09T06:05:42.272Z,1.10
2022-09-09T06:06:44.132Z,0.90
2022-09-09T06:07:46.181Z,0.90
2022-09-09T06:08:48.039Z,1.02
2022-09-09T06:09:49.712Z,1.08
2022-09-09T06:10:51.358Z,1.10
2022-09-09T06:11:53.072Z,0.88
2022-09-09T06:12:54.783Z,1.20
2022-09-09T06:13:56.459Z,1.00
2022-09-09T06:14:58.124Z,1.08
2022-09-09T06:16:00.599Z,1.20
2022-09-09T06:17:03.303Z,1.05
2022-09-09T06:18:05.099Z,1.00
2022-09-09T06:19:07.477Z,1.00
2022-09-09T06:20:10.285Z,1.10
2022-09-09T06:21:23.584Z,0.95
2022-09-09T06:22:25.242Z,1.00
2022-09-09T06:23:27.644Z,1.00
2022-09-09T06:24:31.039Z,1.00
2022-09-09T06:25:33.259Z,1.23
2022-09-09T06:26:37.322Z,1.13
2022-09-09T06:27:38.959Z,1.20
2022-09-09T06:28:41.011Z,1.00
2022-09-09T06:29:42.679Z,1.25
2022-09-09T06:30:44.339Z,1.05
2022-09-09T06:31:46.191Z,1.02
2022-09-09T06:32:47.882Z,1.02
2022-09-09T06:33:51.769Z,1.20
2022-09-09T06:34:53.667Z,0.90
2022-09-09T06:35:58.053Z,1.08
2022-09-09T06:36:59.947Z,1.00
2022-09-09T06:38:01.684Z,0.90
2022-09-09T06:39:03.728Z,1.10
2022-09-09T06:40:05.905Z,2.08
2022-09-09T06:41:08.879Z,1.13
2022-09-09T06:42:10.585Z,1.00
2022-09-09T06:43:12.271Z,1.00
2022-09-09T06:44:13.932Z,1.38
2022-09-09T06:45:15.633Z,1.02
2022-09-09T06:46:28.946Z,0.80
2022-09-09T06:47:31.081Z,0.90
2022-09-09T06:48:33.635Z,1.20
2022-09-09T06:49:35.987Z,0.70
2022-09-09T06:50:37.723Z,1.00
2022-09-09T06:51:43.943Z,0.98
2022-09-09T06:52:48.777Z,0.90
2022-09-09T06:53:59.585Z,0.77
2022-09-09T06:55:01.258Z,1.00
2022-09-09T06:56:24.187Z,0.80
2022-09-09T06:57:41.083Z,0.80
2022-09-09T06:58:44.962Z,0.95
2022-09-09T06:59:46.739Z,1.00
2022-09-09T07:00:48.981Z,0.90
2022-09-09T07:01:55.817Z,0.88
2022-09-09T07:02:57.851Z,0.85
2022-09-09T07:04:00.829Z,1.05
2022-09-09T07:05:02.616Z,0.88
2022-09-09T07:06:05.171Z,0.80
2022-09-09T07:07:07.459Z,1.10
2022-09-09T07:08:09.675Z,0.90
2022-09-09T07:09:13.859Z,0.90
2022-09-09T07:10:15.560Z,0.95
2022-09-09T07:11:17.465Z,1.07
2022-09-09T07:12:19.117Z,0.90
2022-09-09T07:13:28.078Z,0.80
2022-09-09T07:14:29.728Z,0.70
2022-09-09T07:15:31.426Z,0.98
2022-09-09T07:16:34.680Z,1.10
2022-09-09T07:17:36.475Z,0.80
2022-09-09T07:18:38.537Z,1.00
2022-09-09T07:19:40.207Z,0.98
2022-09-09T07:20:42.365Z,1.10
2022-09-09T07:21:44.356Z,1.10
2022-09-09T07:22:46.009Z,1.10
2022-09-09T07:23:47.743Z,0.98
2022-09-09T07:24:50.639Z,1.00
2022-09-09T07:25:53.806Z,0.90
2022-09-09T07:26:55.488Z,1.00
2022-09-09T07:27:57.593Z,1.00
2022-09-09T07:28:59.439Z,1.00
2022-09-09T07:30:01.182Z,1.10
2022-09-09T07:31:04.037Z,1.05
2022-09-09T07:32:05.850Z,1.00
2022-09-09T07:33:07.900Z,1.05
2022-09-09T07:34:09.858Z,0.98
2022-09-09T07:35:11.530Z,1.05
2022-09-09T07:36:19.236Z,0.93
2022-09-09T07:37:20.944Z,1.08
2022-09-09T07:38:23.729Z,1.00
2022-09-09T07:39:25.665Z,0.80
2022-09-09T07:40:27.633Z,0.90
2022-09-09T07:41:35.111Z,1.00
2022-09-09T07:42:38.162Z,1.00
2022-09-09T07:43:44.377Z,1.00
2022-09-09T07:44:46.292Z,1.05
2022-09-09T07:45:48.149Z,0.90
2022-09-09T07:46:50.083Z,1.00
2022-09-09T07:47:52.127Z,1.00
2022-09-09T07:48:57.907Z,0.85
2022-09-09T07:49:59.828Z,0.90
2022-09-09T07:51:15.918Z,1.10
2022-09-09T07:52:19.670Z,1.15
2022-09-09T07:53:24.010Z,0.97
2022-09-09T07:54:25.769Z,0.85
2022-09-09T07:55:27.519Z,1.10
2022-09-09T07:56:30.240Z,0.80
2022-09-09T07:57:31.893Z,0.85
2022-09-09T07:58:38.292Z,0.70
2022-09-09T07:59:40.340Z,0.70
2022-09-09T08:00:44.638Z,0.70
2022-09-09T08:01:49.010Z,0.80
2022-09-09T08:02:51.214Z,0.80
2022-09-09T08:04:02.206Z,0.67
2022-09-09T08:05:04.262Z,0.70
2022-09-09T08:06:09.069Z,0.70
2022-09-09T08:07:11.619Z,1.10
2022-09-09T08:08:13.252Z,1.08
2022-09-09T08:09:15.519Z,0.70
2022-09-09T08:10:17.422Z,0.75
2022-09-09T08:11:19.576Z,0.77
2022-09-09T08:12:21.275Z,1.00
2022-09-09T08:13:23.012Z,0.82
2022-09-09T08:14:25.216Z,0.53
2022-09-09T08:15:26.924Z,1.00
2022-09-09T08:16:32.079Z,1.05
2022-09-09T08:17:33.982Z,0.80
2022-09-09T08:18:36.047Z,0.70
2022-09-09T08:19:37.834Z,0.80
2022-09-09T08:20:39.565Z,0.80
2022-09-09T08:21:42.419Z,0.93
2022-09-09T08:22:44.631Z,0.90
2022-09-09T08:23:48.219Z,0.65
2022-09-09T08:24:49.970Z,0.80
2022-09-09T08:25:51.705Z,0.90
2022-09-09T08:26:54.524Z,0.70
2022-09-09T08:27:56.831Z,0.82
2022-09-09T08:29:00.088Z,0.75
2022-09-09T08:30:01.772Z,0.90
2022-09-09T08:31:08.553Z,0.80
2022-09-09T08:32:10.310Z,0.60
2022-09-09T08:33:11.977Z,0.60
2022-09-09T08:34:14.461Z,0.68
2022-09-09T08:35:16.887Z,0.60
2022-09-09T08:36:24.226Z,0.40
2022-09-09T08:37:26.136Z,0.60
2022-09-09T08:38:28.056Z,0.50
2022-09-09T08:39:29.785Z,0.55
2022-09-09T08:40:43.027Z,0.40
2022-09-09T08:41:59.321Z,0.40
2022-09-09T08:43:03.960Z,0.30
2022-09-09T08:44:18.737Z,0.40
2022-09-09T08:45:36.889Z,0.47
2022-09-09T08:46:47.242Z,0.30
2022-09-09T08:47:58.071Z,0.28
2022-09-09T08:49:07.727Z,0.65
2022-09-09T08:50:18.038Z,0.32
2022-09-09T08:51:20.685Z,0.35
2022-09-09T08:53:00.551Z,0.40
2022-09-09T08:54:04.287Z,2.08
2022-09-09T08:55:23.865Z,0.35
2022-09-09T08:56:26.870Z,0.30
2022-09-09T08:57:29.561Z,0.40
2022-09-09T08:58:33.981Z,0.30
2022-09-09T08:59:36.106Z,0.40
2022-09-09T09:01:14.840Z,0.32
2022-09-09T09:02:37.649Z,0.30
2022-09-09T09:03:56.304Z,0.50
2022-09-09T09:05:27.401Z,0.35
2022-09-09T09:06:49.858Z,1.48
2022-09-09T09:08:32.129Z,0.40
2022-09-09T09:10:03.195Z,0.30
2022-09-09T09:11:06.903Z,0.30
2022-09-09T09:12:22.547Z,0.20
2022-09-09T09:13:46.533Z,0.52
2022-09-09T09:14:49.638Z,0.65
2022-09-09T09:15:59.195Z,0.75
2022-09-09T09:17:08.004Z,1.17
2022-09-09T09:18:13.692Z,2.92
2022-09-09T09:19:17.621Z,2.33
2022-09-09T09:20:28.151Z,2.83
2022-09-09T09:21:40.452Z,2.05
2022-09-09T09:22:51.641Z,3.05
2022-09-09T09:23:59.500Z,1.13
2022-09-09T09:25:23.242Z,1.17
2022-09-09T09:26:31.464Z,0.77
2022-09-09T09:27:41.531Z,0.52
2022-09-09T09:28:43.261Z,0.60
2022-09-09T09:30:17.520Z,0.80
2022-09-09T09:31:11.725Z,0.60
2022-09-09T09:32:17.585Z,0.60
2022-09-09T09:33:25.050Z,0.60
2022-09-09T09:34:26.789Z,0.55
2022-09-09T09:35:28.498Z,0.40
2022-09-09T09:36:42.459Z,0.50
2022-09-09T09:40:28.589Z,0.40
2022-09-09T09:41:44.367Z,0.30
2022-09-09T09:42:57.543Z,0.40
2022-09-09T09:44:01.654Z,0.28
2022-09-09T09:45:30.234Z,0.45
2022-09-09T09:46:33.468Z,0.40
2022-09-09T09:47:35.306Z,0.40
2022-09-09T09:48:37.420Z,0.40
2022-09-09T09:49:39.171Z,0.20
2022-09-09T09:50:56.485Z,0.30
2022-09-09T09:52:03.173Z,0.40
2022-09-09T09:53:07.535Z,0.38
2022-09-09T09:54:29.928Z,0.30
2022-09-09T09:55:34.909Z,0.30
2022-09-09T09:56:37.194Z,0.20
2022-09-09T09:57:39.138Z,0.60
2022-09-09T09:58:47.083Z,0.50
2022-09-09T09:59:48.888Z,0.50
2022-09-09T10:00:52.514Z,0.30
2022-09-09T10:01:54.314Z,0.40
2022-09-09T10:02:57.236Z,0.40
2022-09-09T10:04:03.074Z,0.38
2022-09-09T10:05:05.999Z,0.50
2022-09-09T10:06:08.323Z,0.28
2022-09-09T10:07:18.098Z,0.30
2022-09-09T10:08:21.530Z,0.30
2022-09-09T10:09:29.486Z,0.50
2022-09-09T10:10:57.198Z,0.40
2022-09-09T10:12:04.832Z,0.47
2022-09-09T10:13:30.037Z,0.50
2022-09-09T10:14:38.032Z,0.30
2022-09-09T10:15:52.594Z,0.22
2022-09-09T10:17:23.872Z,0.38
2022-09-09T10:18:57.208Z,0.25
2022-09-09T10:20:28.398Z,0.50
2022-09-09T10:22:04.675Z,0.38
2022-09-09T10:23:36.822Z,0.30
2022-09-09T10:24:49.855Z,0.20
2022-09-09T10:26:26.014Z,0.30
2022-09-09T10:27:53.199Z,0.22
2022-09-09T10:29:24.838Z,0.77
2022-09-09T10:30:34.638Z,0.32
2022-09-09T10:31:45.613Z,0.40
2022-09-09T10:32:47.411Z,0.40
2022-09-09T10:33:57.286Z,0.57
2022-09-09T10:35:28.400Z,0.73
2022-09-09T10:36:30.738Z,0.43
2022-09-09T10:37:51.226Z,0.40
2022-09-09T10:39:06.073Z,0.32
2022-09-09T10:40:34.208Z,0.40
2022-09-09T10:41:56.944Z,0.50
2022-09-09T10:43:15.886Z,0.45
2022-09-09T10:44:46.812Z,0.60
2022-09-09T10:46:18.592Z,0.30
2022-09-09T10:47:42.625Z,0.35
2022-09-09T10:49:08.399Z,0.50
2022-09-09T10:50:22.050Z,0.40
2022-09-09T10:51:24.782Z,0.20
2022-09-09T10:52:35.850Z,0.22
2022-09-09T10:54:12.916Z,0.40
2022-09-09T10:55:29.847Z,0.20
2022-09-09T10:56:32.222Z,0.40
2022-09-09T10:57:40.098Z,0.40
2022-09-09T10:58:50.834Z,0.40
2022-09-09T10:59:58.331Z,0.47
2022-09-09T11:01:10.762Z,0.50
2022-09-09T11:02:30.644Z,0.20
2022-09-09T11:03:34.414Z,0.43
2022-09-09T11:04:45.080Z,0.30
2022-09-09T11:06:20.651Z,0.50
2022-09-09T11:07:51.248Z,0.38
2022-09-09T11:08:56.956Z,0.52
2022-09-09T11:10:07.375Z,0.30
2022-09-09T11:11:23.146Z,0.50
2022-09-09T11:12:27.652Z,0.30
2022-09-09T11:13:34.950Z,0.40
2022-09-09T11:15:11.957Z,0.40
2022-09-09T11:16:25.204Z,0.43
2022-09-09T11:17:43.805Z,0.30
2022-09-09T11:18:47.505Z,0.43
2022-09-09T11:19:49.259Z,0.45
2022-09-09T11:21:01.952Z,0.40
2022-09-09T11:22:09.298Z,0.20
2022-09-09T11:23:16.999Z,0.30
2022-09-09T11:24:30.835Z,0.60
2022-09-09T11:25:42.616Z,0.80
2022-09-09T11:26:52.964Z,0.50
2022-09-09T11:28:23.334Z,0.45
2022-09-09T11:29:31.936Z,1.02
2022-09-09T11:31:09.088Z,0.80
2022-09-09T11:32:38.065Z,0.60
2022-09-09T11:34:03.186Z,1.27
2022-09-09T11:35:27.060Z,0.80
2022-09-09T11:36:44.518Z,0.50
2022-09-09T11:38:10.502Z,0.55
2022-09-09T11:39:31.278Z,0.70
2022-09-09T11:40:34.262Z,0.50
2022-09-09T11:41:38.512Z,0.95
2022-09-09T11:42:40.316Z,0.60
2022-09-09T11:43:48.478Z,0.77
2022-09-09T11:44:50.665Z,0.60
2022-09-09T11:46:00.400Z,0.60
2022-09-09T11:47:03.064Z,0.82
2022-09-09T11:48:06.895Z,0.50
2022-09-09T11:49:38.885Z,0.60
2022-09-09T11:50:41.190Z,0.70
2022-09-09T11:51:43.310Z,0.50
2022-09-09T11:52:47.258Z,0.93
2022-09-09T11:53:54.375Z,0.60
2022-09-09T11:54:57.476Z,0.43
2022-09-09T11:56:07.912Z,0.60
2022-09-09T11:57:49.692Z,0.70
2022-09-09T11:59:03.056Z,0.43
2022-09-09T12:00:06.234Z,0.50
2022-09-09T12:01:35.987Z,0.35
2022-09-09T12:02:37.734Z,0.43
2022-09-09T12:03:50.852Z,0.53
2022-09-09T12:05:13.159Z,0.35
2022-09-09T12:06:26.858Z,0.30
2022-09-09T12:08:04.552Z,0.70
2022-09-09T12:09:28.484Z,0.57
2022-09-09T12:10:39.709Z,0.60
2022-09-09T12:11:41.447Z,0.20
2022-09-09T12:12:44.189Z,0.43
2022-09-09T12:13:55.358Z,0.60
2022-09-09T12:15:08.206Z,0.60
2022-09-09T12:16:36.596Z,0.67
2022-09-09T12:17:47.567Z,0.52
2022-09-09T12:18:49.436Z,0.50
2022-09-09T12:20:06.469Z,0.50
2022-09-09T12:21:49.327Z,0.20
2022-09-09T12:23:28.389Z,0.57
2022-09-09T12:25:09.552Z,0.47
2022-09-09T12:26:25.584Z,0.50
2022-09-09T12:27:34.502Z,0.50
2022-09-09T12:28:49.613Z,0.45
2022-09-09T12:30:03.111Z,0.40
2022-09-09T12:31:33.092Z,0.50
2022-09-09T12:32:34.777Z,0.40
2022-09-09T12:33:40.459Z,0.60
2022-09-09T12:34:56.140Z,0.50
2022-09-09T12:36:01.563Z,0.57
2022-09-09T12:37:22.012Z,0.57
2022-09-09T12:38:44.119Z,0.70
2022-09-09T12:39:52.484Z,0.52
2022-09-09T12:40:58.228Z,0.70
2022-09-09T12:41:59.929Z,0.40
2022-09-09T12:43:02.919Z,0.63
2022-09-09T12:44:07.139Z,0.90
2022-09-09T12:45:39.895Z,0.70
2022-09-09T12:46:44.786Z,0.70
2022-09-09T12:48:01.604Z,0.50
2022-09-09T12:49:04.338Z,0.73
2022-09-09T12:50:15.347Z,0.52
2022-09-09T12:51:22.372Z,0.68
2022-09-09T12:52:27.688Z,0.40
2022-09-09T12:53:37.286Z,0.60
2022-09-09T12:54:44.535Z,0.52
2022-09-09T12:56:20.629Z,0.52
2022-09-09T12:57:28.270Z,0.50
2022-09-09T12:58:33.954Z,0.57
2022-09-09T12:59:40.942Z,0.60
2022-09-09T13:00:51.959Z,0.60
2022-09-09T13:01:59.014Z,0.70
2022-09-09T13:03:19.215Z,0.50
2022-09-09T13:04:23.718Z,0.75
2022-09-09T13:05:27.914Z,0.67
2022-09-09T13:06:33.569Z,0.38
2022-09-09T13:07:35.210Z,0.47
2022-09-09T13:08:36.990Z,0.50
2022-09-09T13:09:39.183Z,0.80
2022-09-09T13:11:03.102Z,0.60
2022-09-09T13:12:06.942Z,0.50
2022-09-09T13:13:19.103Z,0.50
2022-09-09T13:14:30.585Z,0.52
2022-09-09T13:15:32.321Z,0.73
2022-09-09T13:16:41.899Z,0.60
2022-09-09T13:17:51.341Z,0.47
2022-09-09T13:18:53.743Z,0.57
2022-09-09T13:19:56.727Z,0.70
2022-09-09T13:20:59.269Z,0.60
2022-09-09T13:22:01.037Z,0.50
2022-09-09T13:23:03.294Z,0.68
2022-09-09T13:24:26.045Z,0.52
2022-09-09T13:25:29.800Z,0.50
2022-09-09T13:26:31.648Z,0.50
2022-09-09T13:27:39.571Z,0.90
2022-09-09T13:28:41.246Z,0.73
2022-09-09T13:29:55.887Z,0.50
2022-09-09T13:31:07.977Z,0.63
2022-09-09T13:32:19.819Z,0.38
2022-09-09T13:33:24.099Z,0.50
2022-09-09T13:34:33.876Z,0.40
2022-09-09T13:35:36.876Z,0.40
2022-09-09T13:36:38.601Z,0.60
2022-09-09T13:37:43.510Z,0.50
2022-09-09T13:39:02.526Z,0.50
2022-09-09T13:40:07.199Z,0.40
2022-09-09T13:41:11.532Z,0.60
2022-09-09T13:42:26.335Z,0.50
2022-09-09T13:43:28.869Z,0.35
2022-09-09T13:44:39.510Z,0.30
2022-09-09T13:45:41.237Z,0.70
2022-09-09T13:46:43.638Z,0.50
2022-09-09T13:47:46.207Z,0.50
2022-09-09T13:48:59.460Z,0.50
2022-09-09T13:50:20.901Z,0.70
2022-09-09T13:51:33.328Z,0.50
2022-09-09T13:52:34.957Z,0.40
2022-09-09T13:53:36.863Z,0.38
2022-09-09T13:54:38.829Z,0.70
2022-09-09T13:55:40.497Z,0.57
2022-09-09T13:56:43.180Z,0.50
2022-09-09T13:58:02.248Z,0.63
2022-09-09T13:59:06.064Z,0.50
2022-09-09T14:00:11.068Z,0.60
2022-09-09T14:01:13.084Z,0.50
2022-09-09T14:02:16.036Z,0.35
2022-09-09T14:03:17.987Z,0.30
2022-09-09T14:04:23.208Z,0.47
2022-09-09T14:05:26.164Z,0.40
2022-09-09T14:06:28.490Z,0.60
2022-09-09T14:07:30.201Z,0.40
2022-09-09T14:08:38.203Z,0.50
2022-09-09T14:09:41.113Z,0.50
2022-09-09T14:10:42.785Z,0.40
2022-09-09T14:11:48.689Z,0.40
2022-09-09T14:12:50.394Z,0.50
2022-09-09T14:13:52.106Z,0.40
2022-09-09T14:14:53.916Z,0.50
2022-09-09T14:15:55.609Z,0.38
2022-09-09T14:16:57.404Z,0.38
2022-09-09T14:17:59.910Z,0.63
2022-09-09T14:19:02.168Z,0.40
2022-09-09T14:20:10.120Z,0.43
2022-09-09T14:21:12.490Z,0.47
2022-09-09T14:22:14.233Z,0.40
2022-09-09T14:23:16.473Z,0.50
2022-09-09T14:24:18.476Z,0.63
2022-09-09T14:25:20.187Z,0.30
2022-09-09T14:26:22.418Z,0.52
2022-09-09T14:27:24.139Z,0.47
2022-09-09T14:28:51.913Z,0.40
2022-09-09T14:29:48.149Z,0.50
2022-09-09T14:30:49.849Z,0.40
2022-09-09T14:31:51.522Z,0.70
2022-09-09T14:32:53.208Z,0.40
2022-09-09T14:33:54.982Z,0.30
2022-09-09T14:34:56.741Z,0.30
2022-09-09T14:36:03.492Z,0.57
2022-09-09T14:37:05.551Z,0.40
2022-09-09T14:38:07.754Z,0.30
2022-09-09T14:39:09.675Z,0.50
2022-09-09T14:40:12.300Z,0.52
2022-09-09T14:41:19.303Z,0.47
2022-09-09T14:42:22.340Z,0.40
2022-09-09T14:43:23.976Z,0.40
2022-09-09T14:44:25.711Z,0.40
2022-09-09T14:45:27.409Z,0.50
2022-09-09T14:46:29.538Z,0.50
2022-09-09T14:47:31.369Z,0.40
2022-09-09T14:48:34.690Z,0.60
2022-09-09T14:49:36.811Z,0.30
2022-09-09T14:50:41.565Z,0.40
2022-09-09T14:51:43.326Z,0.30
2022-09-09T14:52:45.250Z,0.40
2022-09-09T14:53:47.528Z,0.40
2022-09-09T14:54:49.175Z,0.40
2022-09-09T14:55:50.831Z,0.60
2022-09-09T14:56:52.512Z,0.35
2022-09-09T14:57:54.145Z,0.50
2022-09-09T14:58:56.740Z,0.63
2022-09-09T14:59:58.395Z,0.40
2022-09-09T15:01:07.429Z,0.50
2022-09-09T15:02:10.121Z,0.77
2022-09-09T15:03:11.889Z,0.45